createdAt,value
2022-12-31T00:01:23.897Z,100.00
2022-12-31T00:03:52.575Z,100.00
2022-12-31T00:06:26.736Z,100.00
2022-12-31T00:08:56.745Z,100.00
2022-12-31T00:11:26.379Z,100.00
2022-12-31T00:13:55.296Z,100.00
2022-12-31T00:16:25.837Z,100.00
2022-12-31T00:18:59.153Z,100.00
2022-12-31T00:21:30.477Z,100.00
2022-12-31T00:23:59.161Z,100.00
2022-12-31T00:26:30.669Z,100.00
2022-12-31T00:29:00.832Z,100.00
2022-12-31T00:31:31.447Z,100.00
2022-12-31T00:34:00.554Z,100.00
2022-12-31T00:36:32.651Z,100.00
2022-12-31T00:39:02.846Z,100.00
2022-12-31T00:41:31.562Z,100.00
2022-12-31T00:44:00.588Z,100.00
2022-12-31T00:46:28.991Z,100.00
2022-12-31T00:48:57.460Z,100.00
2022-12-31T00:51:27.580Z,100.00
2022-12-31T00:53:58.471Z,100.00
2022-12-31T00:56:29.218Z,100.00
2022-12-31T00:58:58.150Z,100.00
2022-12-31T01:01:29.305Z,100.00
2022-12-31T01:04:00.974Z,100.00
2022-12-31T01:06:29.382Z,100.00
2022-12-31T01:08:59.404Z,100.00
2022-12-31T01:11:30.032Z,100.00
2022-12-31T01:14:00.268Z,100.00
2022-12-31T01:16:32.271Z,100.00
2022-12-31T01:19:01.774Z,100.00
2022-12-31T01:21:30.779Z,100.00
2022-12-31T01:24:01.147Z,100.00
2022-12-31T01:26:30.029Z,100.00
2022-12-31T01:28:58.408Z,100.00
2022-12-31T01:31:27.138Z,100.00
2022-12-31T01:33:55.598Z,100.00
2022-12-31T01:36:26.724Z,100.00
2022-12-31T01:38:55.814Z,100.00
2022-12-31T01:41:27.851Z,100.00
2022-12-31T01:43:58.684Z,100.00
2022-12-31T01:46:33.317Z,100.00
2022-12-31T01:49:04.374Z,100.00
2022-12-31T01:51:36.068Z,100.00
2022-12-31T01:54:08.349Z,100.00
2022-12-31T01:56:40.231Z,100.00
2022-12-31T01:59:11.595Z,100.00
2022-12-31T02:01:40.499Z,100.00
2022-12-31T02:04:13.084Z,100.00
2022-12-31T02:06:46.873Z,100.00
2022-12-31T02:09:15.373Z,100.00
2022-12-31T02:11:45.097Z,100.00
2022-12-31T02:14:17.324Z,100.00
2022-12-31T02:16:52.042Z,100.00
2022-12-31T02:19:46.449Z,100.00
2022-12-31T02:22:27.644Z,100.00
2022-12-31T02:25:23.287Z,100.00
2022-12-31T02:28:03.741Z,100.00
2022-12-31T02:30:34.459Z,100.00
2022-12-31T02:33:14.704Z,100.00
2022-12-31T02:35:50.162Z,100.00
2022-12-31T02:38:23.627Z,100.00
2022-12-31T02:40:54.007Z,100.00
2022-12-31T02:43:22.427Z,100.00
2022-12-31T02:46:02.368Z,100.00
2022-12-31T02:48:43.441Z,100.00
2022-12-31T02:51:34.279Z,100.00
2022-12-31T02:54:18.535Z,100.00
2022-12-31T02:56:54.819Z,100.00
2022-12-31T02:59:44.405Z,100.00
2022-12-31T03:02:19.501Z,100.00
2022-12-31T03:04:52.425Z,100.00
2022-12-31T03:07:23.540Z,100.00
2022-12-31T03:09:52.397Z,100.00
2022-12-31T03:12:42.095Z,100.00
2022-12-31T03:15:20.709Z,100.00
2022-12-31T03:17:57.685Z,100.00
2022-12-31T03:20:46.161Z,100.00
2022-12-31T03:23:17.271Z,100.00
2022-12-31T03:25:44.718Z,100.00
2022-12-31T03:28:16.192Z,100.00
2022-12-31T03:30:47.002Z,100.00
2022-12-31T03:33:17.277Z,100.00
2022-12-31T03:35:47.785Z,100.00
2022-12-31T03:38:16.957Z,100.00
2022-12-31T03:40:48.194Z,100.00
2022-12-31T03:43:16.655Z,100.00
2022-12-31T03:45:45.042Z,100.00
2022-12-31T03:48:14.438Z,100.00
2022-12-31T03:50:44.167Z,100.00
2022-12-31T03:53:12.639Z,100.00
2022-12-31T03:55:41.063Z,100.00
2022-12-31T03:58:09.439Z,100.00
2022-12-31T04:00:37.857Z,100.00
2022-12-31T04:03:06.473Z,100.00
2022-12-31T04:05:34.949Z,100.00
2022-12-31T04:08:04.957Z,100.00
2022-12-31T04:10:33.326Z,100.00
2022-12-31T04:13:04.437Z,100.00
2022-12-31T04:15:33.209Z,100.00
2022-12-31T04:18:01.562Z,100.00
2022-12-31T04:20:29.931Z,100.00
2022-12-31T04:22:58.271Z,100.00
2022-12-31T04:25:28.070Z,100.00
2022-12-31T04:27:56.444Z,100.00
2022-12-31T04:30:24.801Z,100.00
2022-12-31T04:32:53.212Z,100.00
2022-12-31T04:35:21.583Z,100.00
2022-12-31T04:37:49.969Z,100.00
2022-12-31T04:40:18.444Z,100.00
2022-12-31T04:42:48.165Z,100.00
2022-12-31T04:45:16.725Z,100.00
2022-12-31T04:47:45.073Z,100.00
2022-12-31T04:50:13.470Z,100.00
2022-12-31T04:52:43.030Z,100.00
2022-12-31T04:55:12.323Z,100.00
2022-12-31T04:57:42.131Z,100.00
2022-12-31T05:00:13.700Z,100.00
2022-12-31T05:02:42.215Z,100.00
2022-12-31T05:05:10.856Z,100.00
2022-12-31T05:07:39.322Z,100.00
2022-12-31T05:10:08.525Z,100.00
2022-12-31T05:12:36.942Z,100.00
2022-12-31T05:15:06.040Z,100.00
2022-12-31T05:17:35.803Z,100.00
2022-12-31T05:20:06.492Z,100.00
2022-12-31T05:22:34.839Z,100.00
2022-12-31T05:25:03.196Z,100.00
2022-12-31T05:27:32.073Z,100.00
2022-12-31T05:30:00.694Z,100.00
2022-12-31T05:32:29.123Z,100.00
2022-12-31T05:35:00.157Z,100.00
2022-12-31T05:37:29.391Z,100.00
2022-12-31T05:39:58.112Z,100.00
2022-12-31T05:42:27.068Z,100.00
2022-12-31T05:44:55.481Z,100.00
2022-12-31T05:47:24.416Z,100.00
2022-12-31T05:49:52.826Z,100.00
2022-12-31T05:52:22.635Z,100.00
2022-12-31T05:54:51.016Z,100.00
2022-12-31T05:57:19.442Z,100.00
2022-12-31T05:59:47.908Z,100.00
2022-12-31T06:02:16.333Z,100.00
2022-12-31T06:04:44.861Z,100.00
2022-12-31T06:07:13.274Z,100.00
2022-12-31T06:09:43.035Z,100.00
2022-12-31T06:12:11.415Z,100.00
2022-12-31T06:14:45.446Z,100.00
2022-12-31T06:17:14.278Z,100.00
2022-12-31T06:19:42.656Z,100.00
2022-12-31T06:22:11.029Z,100.00
2022-12-31T06:24:39.370Z,100.00
2022-12-31T06:27:09.093Z,100.00
2022-12-31T06:29:37.483Z,100.00
2022-12-31T06:32:06.656Z,100.00
2022-12-31T06:34:35.025Z,100.00
2022-12-31T06:37:03.444Z,100.00
2022-12-31T06:39:31.803Z,100.00
2022-12-31T06:42:00.160Z,100.00
2022-12-31T06:44:29.861Z,100.00
2022-12-31T06:46:58.206Z,100.00
2022-12-31T06:49:26.590Z,100.00
2022-12-31T06:51:54.945Z,100.00
2022-12-31T06:54:23.282Z,100.00
2022-12-31T06:56:52.234Z,100.00
2022-12-31T06:59:26.550Z,100.00
2022-12-31T07:02:15.321Z,100.00
2022-12-31T07:05:06.863Z,100.00
2022-12-31T07:07:42.151Z,100.00
2022-12-31T07:10:28.966Z,100.00
2022-12-31T07:13:15.356Z,100.00
2022-12-31T07:16:01.500Z,100.00
2022-12-31T07:18:38.672Z,100.00
2022-12-31T07:21:12.757Z,100.00
2022-12-31T07:23:41.721Z,100.00
2022-12-31T07:26:20.940Z,100.00
2022-12-31T07:29:00.427Z,100.00
2022-12-31T07:31:40.670Z,100.00
2022-12-31T07:34:21.400Z,100.00
2022-12-31T07:36:59.536Z,100.00
2022-12-31T07:39:40.056Z,100.00
2022-12-31T07:42:15.366Z,100.00
2022-12-31T07:44:59.864Z,100.00
2022-12-31T07:47:29.925Z,100.00
2022-12-31T07:50:00.454Z,100.00
2022-12-31T07:52:29.371Z,100.00
2022-12-31T07:54:57.744Z,100.00
2022-12-31T07:57:35.542Z,100.00
2022-12-31T08:00:08.180Z,100.00
2022-12-31T08:02:58.111Z,100.00
2022-12-31T08:05:33.370Z,100.00
2022-12-31T08:08:12.344Z,100.00
2022-12-31T08:10:48.381Z,100.00
2022-12-31T08:13:18.410Z,100.00
2022-12-31T08:15:47.247Z,100.00
2022-12-31T08:18:16.066Z,100.00
2022-12-31T08:20:56.737Z,100.00
2022-12-31T08:23:33.731Z,100.00
2022-12-31T08:26:15.386Z,100.00
2022-12-31T08:28:58.779Z,100.00
2022-12-31T08:31:34.877Z,100.00
2022-12-31T08:34:14.229Z,100.00
2022-12-31T08:36:51.002Z,100.00
2022-12-31T08:39:30.261Z,100.00
2022-12-31T08:42:01.338Z,100.00
2022-12-31T08:44:37.415Z,100.00
2022-12-31T08:47:13.750Z,100.00
2022-12-31T08:49:42.484Z,100.00
2022-12-31T08:52:17.220Z,100.00
2022-12-31T08:54:46.176Z,100.00
2022-12-31T08:57:22.710Z,100.00
2022-12-31T09:00:02.863Z,100.00
2022-12-31T09:03:09.925Z,100.00
2022-12-31T09:05:54.055Z,100.00
2022-12-31T09:08:32.714Z,100.00
2022-12-31T09:11:08.705Z,100.00
2022-12-31T09:13:50.636Z,100.00
2022-12-31T09:16:23.454Z,100.00
2022-12-31T09:18:51.856Z,100.00
2022-12-31T09:21:20.607Z,100.00
2022-12-31T09:23:50.963Z,100.00
2022-12-31T09:26:36.380Z,100.00
2022-12-31T09:29:13.265Z,100.00
2022-12-31T09:31:50.768Z,100.00
2022-12-31T09:34:28.088Z,100.00
2022-12-31T09:37:00.457Z,100.00
2022-12-31T09:39:38.579Z,100.00
2022-12-31T09:42:32.971Z,100.00
2022-12-31T09:45:45.731Z,100.00
2022-12-31T09:48:59.352Z,100.00
2022-12-31T09:51:32.248Z,100.00
2022-12-31T09:54:37.758Z,100.00
2022-12-31T09:57:23.211Z,98.25
2022-12-31T09:59:58.912Z,98.14
2022-12-31T10:02:48.416Z,97.00
2022-12-31T10:05:40.238Z,96.74
2022-12-31T10:08:20.409Z,97.02
2022-12-31T10:10:55.841Z,97.80
2022-12-31T10:13:37.438Z,96.90
2022-12-31T10:16:35.036Z,96.06
2022-12-31T10:19:36.251Z,97.03
2022-12-31T10:22:20.135Z,95.94
2022-12-31T10:25:13.125Z,96.07
2022-12-31T10:27:52.746Z,95.61
2022-12-31T10:30:23.138Z,95.47
2022-12-31T10:33:13.202Z,95.10
2022-12-31T10:35:50.767Z,94.23
2022-12-31T10:38:28.228Z,93.79
2022-12-31T10:41:49.996Z,93.98
2022-12-31T10:44:56.901Z,92.89
2022-12-31T10:47:52.981Z,93.10
2022-12-31T10:50:49.421Z,93.38
2022-12-31T10:53:58.422Z,92.73
2022-12-31T10:56:57.548Z,93.09
2022-12-31T10:59:54.892Z,93.34
2022-12-31T11:02:48.619Z,94.00
2022-12-31T11:05:53.295Z,94.27
2022-12-31T11:08:51.018Z,94.92
2022-12-31T11:11:29.061Z,94.91
2022-12-31T11:14:39.039Z,96.36
2022-12-31T11:17:20.857Z,96.60
2022-12-31T11:20:04.406Z,97.20
2022-12-31T11:22:48.957Z,97.60
2022-12-31T11:25:30.157Z,97.81
2022-12-31T11:28:22.893Z,97.03
2022-12-31T11:31:09.762Z,96.55
2022-12-31T11:33:53.853Z,96.66
2022-12-31T11:36:34.250Z,95.87
2022-12-31T11:39:30.703Z,95.58
2022-12-31T11:42:05.923Z,94.75
2022-12-31T11:44:41.777Z,94.02
2022-12-31T11:47:26.727Z,92.97
2022-12-31T11:50:16.919Z,92.35
2022-12-31T11:52:55.623Z,92.11
2022-12-31T11:55:44.262Z,91.97
2022-12-31T11:58:16.424Z,91.92
2022-12-31T12:00:54.880Z,91.91
2022-12-31T12:03:24.660Z,91.12
2022-12-31T12:05:56.975Z,91.10
2022-12-31T12:08:26.924Z,89.87
2022-12-31T12:11:01.498Z,90.38
2022-12-31T12:13:29.914Z,89.77
2022-12-31T12:16:00.854Z,89.16
2022-12-31T12:18:34.699Z,88.48
2022-12-31T12:21:10.723Z,89.15
2022-12-31T12:23:39.669Z,88.43
2022-12-31T12:26:08.398Z,88.38
2022-12-31T12:28:46.072Z,86.88
2022-12-31T12:31:21.972Z,87.17
2022-12-31T12:33:52.506Z,87.27
2022-12-31T12:36:22.885Z,86.88
2022-12-31T12:39:02.897Z,87.30
2022-12-31T12:41:31.665Z,87.37
2022-12-31T12:44:05.220Z,88.04
2022-12-31T12:46:36.638Z,87.86
2022-12-31T12:49:05.199Z,87.46
2022-12-31T12:52:09.149Z,87.47
2022-12-31T12:54:51.662Z,86.63
2022-12-31T12:57:29.222Z,87.29
2022-12-31T13:00:07.636Z,86.44
2022-12-31T13:03:01.701Z,87.55
2022-12-31T13:05:41.193Z,86.90
2022-12-31T13:08:23.327Z,87.08
2022-12-31T13:11:15.430Z,86.52
2022-12-31T13:13:49.751Z,86.38
2022-12-31T13:16:24.808Z,86.69
2022-12-31T13:18:59.867Z,85.65
2022-12-31T13:21:36.779Z,85.52
2022-12-31T13:24:19.662Z,85.55
2022-12-31T13:26:54.037Z,86.00
2022-12-31T13:29:27.504Z,85.22
2022-12-31T13:31:58.204Z,85.56
2022-12-31T13:34:31.659Z,86.05
2022-12-31T13:37:04.549Z,85.58
2022-12-31T13:39:40.457Z,85.43
2022-12-31T13:42:14.249Z,85.06
2022-12-31T13:44:49.149Z,85.07
2022-12-31T13:47:25.423Z,84.98
2022-12-31T13:49:59.025Z,85.48
2022-12-31T13:52:35.639Z,84.77
2022-12-31T13:55:14.534Z,84.49
2022-12-31T13:57:47.072Z,85.12
2022-12-31T14:00:22.886Z,85.04
2022-12-31T14:03:02.546Z,84.94
2022-12-31T14:05:35.140Z,84.46
2022-12-31T14:08:06.257Z,84.12
2022-12-31T14:10:45.615Z,84.41
2022-12-31T14:13:43.561Z,85.76
2022-12-31T14:16:20.838Z,85.78
2022-12-31T14:18:59.058Z,85.40
2022-12-31T14:21:33.862Z,85.23
2022-12-31T14:24:13.520Z,85.44
2022-12-31T14:26:47.190Z,85.33
2022-12-31T14:29:30.414Z,85.29
2022-12-31T14:32:22.500Z,84.01
2022-12-31T14:34:59.618Z,84.49
2022-12-31T14:37:38.899Z,83.61
2022-12-31T14:40:20.129Z,83.48
2022-12-31T14:43:03.109Z,83.94
2022-12-31T14:45:50.635Z,84.24
2022-12-31T14:48:31.130Z,83.99
2022-12-31T14:51:02.103Z,83.91
2022-12-31T14:53:31.437Z,83.54
2022-12-31T14:56:02.838Z,83.57
2022-12-31T14:58:35.589Z,84.03
2022-12-31T15:01:08.873Z,84.64
2022-12-31T15:03:44.996Z,84.84
2022-12-31T15:06:49.423Z,85.17
2022-12-31T15:09:31.076Z,84.56
2022-12-31T15:12:23.138Z,84.72
2022-12-31T15:15:22.529Z,85.72
2022-12-31T15:18:03.605Z,86.31
2022-12-31T15:20:43.804Z,86.19
2022-12-31T15:23:23.067Z,87.62
2022-12-31T15:25:56.520Z,86.89
2022-12-31T15:28:32.677Z,87.45
2022-12-31T15:31:11.725Z,88.41
2022-12-31T15:33:56.837Z,88.52
2022-12-31T15:36:26.387Z,87.92
2022-12-31T15:39:07.520Z,88.70
2022-12-31T15:41:50.277Z,88.99
2022-12-31T15:44:29.809Z,89.14
2022-12-31T15:47:05.426Z,88.71
2022-12-31T15:49:41.535Z,88.89
2022-12-31T15:52:18.220Z,89.64
2022-12-31T15:54:49.209Z,89.49
2022-12-31T15:57:20.791Z,89.33
2022-12-31T15:59:49.215Z,89.38
2022-12-31T16:02:24.981Z,89.11
2022-12-31T16:04:55.532Z,89.26
2022-12-31T16:07:25.386Z,89.46
2022-12-31T16:09:56.391Z,89.48
2022-12-31T16:12:32.747Z,90.15
2022-12-31T16:15:03.308Z,89.57
2022-12-31T16:17:35.017Z,89.68
2022-12-31T16:20:22.556Z,89.69
2022-12-31T16:22:54.763Z,89.27
2022-12-31T16:25:31.959Z,88.91
2022-12-31T16:28:03.047Z,89.17
2022-12-31T16:30:33.314Z,89.32
2022-12-31T16:33:05.661Z,89.29
2022-12-31T16:35:36.359Z,88.33
2022-12-31T16:38:12.826Z,88.57
2022-12-31T16:40:42.482Z,88.59
2022-12-31T16:43:26.008Z,87.69
2022-12-31T16:45:57.502Z,87.21
2022-12-31T16:48:27.721Z,87.15
2022-12-31T16:50:57.824Z,85.62
2022-12-31T16:53:29.884Z,85.45
2022-12-31T16:56:03.167Z,85.22
2022-12-31T16:58:34.311Z,85.52
2022-12-31T17:01:14.729Z,85.66
2022-12-31T17:03:48.477Z,85.57
2022-12-31T17:06:18.925Z,84.93
2022-12-31T17:08:50.454Z,85.09
2022-12-31T17:11:23.566Z,84.66
2022-12-31T17:13:58.378Z,84.48
2022-12-31T17:16:27.561Z,84.33
2022-12-31T17:18:57.393Z,84.17
2022-12-31T17:21:30.342Z,84.00
2022-12-31T17:24:04.306Z,83.66
2022-12-31T17:26:35.834Z,83.72
2022-12-31T17:29:06.043Z,83.29
2022-12-31T17:31:37.182Z,83.50
2022-12-31T17:34:21.215Z,83.21
2022-12-31T17:37:04.274Z,83.47
2022-12-31T17:39:44.792Z,83.63
2022-12-31T17:42:14.751Z,83.68
2022-12-31T17:44:44.737Z,83.14
2022-12-31T17:47:14.910Z,82.99
2022-12-31T17:49:46.744Z,82.56
2022-12-31T17:52:17.102Z,82.00
2022-12-31T17:54:45.539Z,82.28
2022-12-31T17:57:26.801Z,82.59
2022-12-31T17:59:55.443Z,82.50
2022-12-31T18:02:24.118Z,82.07
2022-12-31T18:04:54.194Z,82.20
2022-12-31T18:07:22.563Z,82.07
2022-12-31T18:09:51.076Z,82.45
2022-12-31T18:12:20.103Z,83.18
2022-12-31T18:14:48.661Z,82.96
2022-12-31T18:17:17.299Z,82.42
2022-12-31T18:20:04.375Z,81.97
2022-12-31T18:22:35.626Z,82.40
2022-12-31T18:25:06.690Z,82.19
2022-12-31T18:27:35.146Z,82.51
2022-12-31T18:30:06.079Z,81.63
2022-12-31T18:32:35.622Z,82.43
2022-12-31T18:35:04.759Z,82.50
2022-12-31T18:37:35.600Z,83.11
2022-12-31T18:40:04.139Z,82.62
2022-12-31T18:42:33.276Z,82.67
2022-12-31T18:45:01.796Z,82.78
2022-12-31T18:47:35.805Z,82.59
2022-12-31T18:50:07.263Z,83.15
2022-12-31T18:52:37.041Z,82.65
2022-12-31T18:55:22.887Z,82.59
2022-12-31T18:57:51.267Z,82.89
2022-12-31T19:00:20.051Z,83.71
2022-12-31T19:02:48.754Z,83.44
2022-12-31T19:05:26.673Z,83.48
2022-12-31T19:07:57.458Z,83.96
2022-12-31T19:10:27.232Z,84.34
2022-12-31T19:12:55.748Z,84.53
2022-12-31T19:15:30.275Z,84.70
2022-12-31T19:17:58.631Z,85.18
2022-12-31T19:20:27.180Z,86.35
2022-12-31T19:22:57.804Z,86.07
2022-12-31T19:25:27.757Z,86.68
2022-12-31T19:27:56.339Z,86.28
2022-12-31T19:30:28.357Z,86.56
2022-12-31T19:32:56.986Z,86.94
2022-12-31T19:35:26.382Z,86.33
2022-12-31T19:37:56.544Z,86.08
2022-12-31T19:40:27.053Z,85.98
2022-12-31T19:42:56.127Z,86.38
2022-12-31T19:45:26.630Z,85.47
2022-12-31T19:47:57.092Z,85.84
2022-12-31T19:50:27.972Z,85.29
2022-12-31T19:52:59.479Z,85.50
2022-12-31T19:55:27.912Z,85.21
2022-12-31T19:57:56.542Z,84.89
2022-12-31T20:00:24.952Z,85.78
2022-12-31T20:02:53.607Z,85.13
2022-12-31T20:05:22.068Z,85.40
2022-12-31T20:07:50.513Z,84.05
2022-12-31T20:10:20.422Z,84.91
2022-12-31T20:12:48.856Z,84.57
2022-12-31T20:15:17.340Z,84.27
2022-12-31T20:17:45.848Z,84.58
2022-12-31T20:20:14.647Z,83.96
2022-12-31T20:22:43.075Z,83.93
2022-12-31T20:25:11.474Z,83.57
2022-12-31T20:27:41.196Z,83.47
2022-12-31T20:30:10.812Z,83.72
2022-12-31T20:32:39.819Z,84.21
2022-12-31T20:35:08.843Z,83.31
2022-12-31T20:37:37.191Z,82.37
2022-12-31T20:40:07.127Z,82.83
2022-12-31T20:42:36.655Z,82.76
2022-12-31T20:45:08.096Z,81.79
2022-12-31T20:47:36.527Z,82.46
2022-12-31T20:50:13.102Z,82.77
2022-12-31T20:52:42.986Z,82.05
2022-12-31T20:55:13.821Z,81.54
2022-12-31T20:57:42.184Z,81.23
2022-12-31T21:00:14.826Z,81.19
2022-12-31T21:02:45.026Z,80.63
2022-12-31T21:05:16.643Z,80.32
2022-12-31T21:07:45.258Z,79.80
2022-12-31T21:10:15.178Z,80.87
2022-12-31T21:12:45.447Z,80.34
2022-12-31T21:15:15.271Z,80.00
2022-12-31T21:17:43.931Z,79.82
2022-12-31T21:20:13.145Z,79.79
2022-12-31T21:22:41.495Z,79.85
2022-12-31T21:25:11.526Z,79.43
2022-12-31T21:27:39.866Z,78.78
2022-12-31T21:30:19.077Z,78.50
2022-12-31T21:32:49.724Z,78.93
2022-12-31T21:38:07.844Z,78.70
2022-12-31T21:40:36.253Z,78.84
2022-12-31T21:43:04.637Z,78.51
2022-12-31T21:45:33.054Z,78.20
2022-12-31T21:48:22.024Z,77.42
2022-12-31T21:50:51.972Z,77.54
2022-12-31T21:53:26.220Z,77.56
2022-12-31T21:56:09.704Z,77.53
2022-12-31T21:58:42.041Z,77.04
2022-12-31T22:01:34.479Z,77.30
2022-12-31T22:04:04.560Z,77.75
2022-12-31T22:06:36.779Z,77.22
2022-12-31T22:09:05.239Z,76.84
2022-12-31T22:11:33.571Z,76.85
2022-12-31T22:14:02.038Z,77.01
2022-12-31T22:16:30.509Z,76.92
2022-12-31T22:18:58.869Z,76.57
2022-12-31T22:21:28.736Z,76.44
2022-12-31T22:23:58.741Z,76.21
2022-12-31T22:26:29.901Z,76.12
2022-12-31T22:28:59.786Z,76.25
2022-12-31T22:31:30.871Z,76.50
2022-12-31T22:34:02.717Z,76.59
2022-12-31T22:36:32.603Z,76.68
2022-12-31T22:39:01.048Z,77.03
2022-12-31T22:41:29.893Z,76.08
2022-12-31T22:44:04.584Z,76.27
2022-12-31T22:46:33.742Z,76.46
2022-12-31T22:49:03.510Z,76.64
2022-12-31T22:51:55.848Z,75.85
2022-12-31T22:54:22.539Z,76.22
2022-12-31T22:56:50.988Z,76.82
2022-12-31T22:59:19.528Z,76.52
2022-12-31T23:01:48.120Z,76.97
2022-12-31T23:04:16.895Z,77.45
2022-12-31T23:06:46.696Z,76.29
2022-12-31T23:09:34.606Z,76.83
2022-12-31T23:12:04.295Z,76.22
2022-12-31T23:14:50.043Z,75.61
2022-12-31T23:17:39.868Z,76.21
2022-12-31T23:20:30.554Z,76.38
2022-12-31T23:23:12.696Z,75.85
2022-12-31T23:25:43.937Z,75.88
2022-12-31T23:28:15.009Z,76.17
2022-12-31T23:30:44.091Z,75.61
2022-12-31T23:33:16.546Z,75.89
2022-12-31T23:35:45.450Z,75.26
2022-12-31T23:38:16.652Z,75.51
2022-12-31T23:40:45.173Z,75.38
2022-12-31T23:43:20.902Z,74.71
2022-12-31T23:45:50.309Z,74.61
2022-12-31T23:48:18.903Z,74.68
2022-12-31T23:50:52.997Z,73.85
2022-12-31T23:53:24.746Z,74.32
2022-12-31T23:55:54.141Z,74.45
2022-12-31T23:58:23.315Z,73.51
